createdAt,value
2023-03-02T00:02:18.615Z,68.56
2023-03-02T00:04:54.735Z,68.48
2023-03-02T00:07:32.095Z,68.25
2023-03-02T00:10:06.518Z,68.18
2023-03-02T00:12:40.144Z,68.07
2023-03-02T00:15:14.153Z,68.23
2023-03-02T00:17:47.387Z,68.08
2023-03-02T00:20:20.910Z,67.88
2023-03-02T00:22:54.353Z,67.67
2023-03-02T00:25:28.869Z,67.60
2023-03-02T00:28:02.275Z,67.40
2023-03-02T00:30:35.492Z,67.15
2023-03-02T00:33:09.244Z,66.86
2023-03-02T00:35:43.221Z,66.71
2023-03-02T00:38:17.132Z,66.57
2023-03-02T00:40:51.074Z,66.53
2023-03-02T00:43:26.450Z,66.52
2023-03-02T00:45:59.956Z,66.45
2023-03-02T00:48:33.243Z,66.29
2023-03-02T00:51:08.113Z,66.30
2023-03-02T00:53:42.407Z,66.10
2023-03-02T00:56:16.124Z,66.08
2023-03-02T00:58:51.088Z,66.16
2023-03-02T01:01:26.581Z,66.46
2023-03-02T01:03:59.991Z,66.61
2023-03-02T01:06:33.915Z,66.73
2023-03-02T01:09:08.634Z,66.60
2023-03-02T01:11:42.251Z,66.46
2023-03-02T01:14:16.200Z,66.20
2023-03-02T01:16:49.723Z,65.98
2023-03-02T01:19:23.366Z,65.83
2023-03-02T01:21:56.634Z,66.02
2023-03-02T01:24:30.206Z,66.38
2023-03-02T01:27:03.600Z,66.48
2023-03-02T01:29:37.006Z,66.55
2023-03-02T01:32:10.270Z,66.48
2023-03-02T01:34:44.235Z,66.64
2023-03-02T01:37:17.844Z,66.93
2023-03-02T01:39:51.477Z,67.09
2023-03-02T01:42:24.842Z,67.07
2023-03-02T01:44:58.342Z,66.89
2023-03-02T01:47:34.984Z,66.69
2023-03-02T01:50:14.903Z,66.58
2023-03-02T01:52:50.559Z,66.59
2023-03-02T01:55:26.772Z,66.51
2023-03-02T01:58:02.111Z,66.41
2023-03-02T02:00:38.446Z,66.34
2023-03-02T02:03:15.337Z,66.34
2023-03-02T02:05:52.051Z,66.27
2023-03-02T02:08:26.666Z,66.14
2023-03-02T02:11:00.973Z,66.15
2023-03-02T02:13:35.503Z,66.02
2023-03-02T02:16:10.250Z,66.09
2023-03-02T02:18:44.982Z,66.18
2023-03-02T02:21:20.125Z,66.35
2023-03-02T02:23:58.124Z,66.36
2023-03-02T02:26:35.756Z,66.37
2023-03-02T02:29:10.705Z,66.35
2023-03-02T02:31:47.043Z,65.89
2023-03-02T02:34:23.186Z,65.79
2023-03-02T02:36:59.839Z,65.76
2023-03-02T02:39:36.025Z,65.80
2023-03-02T02:42:13.631Z,65.76
2023-03-02T02:44:47.323Z,65.71
2023-03-02T02:47:23.123Z,65.60
2023-03-02T02:49:57.697Z,65.46
2023-03-02T02:52:32.143Z,65.34
2023-03-02T02:55:06.851Z,65.21
2023-03-02T02:57:40.680Z,65.07
2023-03-02T03:00:20.950Z,64.87
2023-03-02T03:02:59.787Z,64.88
2023-03-02T03:05:33.773Z,64.83
2023-03-02T03:08:12.627Z,64.65
2023-03-02T03:10:48.652Z,64.61
2023-03-02T03:13:22.148Z,64.53
2023-03-02T03:15:55.741Z,64.42
2023-03-02T03:18:31.278Z,64.33
2023-03-02T03:21:05.451Z,64.28
2023-03-02T03:23:39.225Z,64.22
2023-03-02T03:26:13.325Z,64.15
2023-03-02T03:28:47.442Z,64.02
2023-03-02T03:31:21.377Z,64.00
2023-03-02T03:33:55.178Z,63.89
2023-03-02T03:36:29.794Z,63.75
2023-03-02T03:39:05.718Z,63.70
2023-03-02T03:41:40.387Z,63.69
2023-03-02T03:44:14.856Z,63.73
2023-03-02T03:46:48.458Z,63.72
2023-03-02T03:49:22.304Z,63.71
2023-03-02T03:51:56.524Z,63.63
2023-03-02T03:54:31.020Z,63.34
2023-03-02T03:57:04.947Z,63.47
2023-03-02T03:59:38.583Z,63.47
2023-03-02T04:02:12.388Z,63.40
2023-03-02T04:04:47.767Z,63.31
2023-03-02T04:07:22.768Z,63.24
2023-03-02T04:09:59.146Z,63.20
2023-03-02T04:12:36.033Z,63.16
2023-03-02T04:15:15.625Z,63.11
2023-03-02T04:17:50.283Z,63.12
2023-03-02T04:20:27.248Z,63.10
2023-03-02T04:23:01.878Z,63.06
2023-03-02T04:25:36.271Z,63.02
2023-03-02T04:28:11.267Z,62.99
2023-03-02T04:30:46.545Z,62.96
2023-03-02T04:33:19.904Z,62.97
2023-03-02T04:35:55.167Z,62.97
2023-03-02T04:38:29.860Z,62.89
2023-03-02T04:41:04.474Z,62.71
2023-03-02T04:43:37.883Z,62.71
2023-03-02T04:46:14.297Z,62.79
2023-03-02T04:48:47.600Z,62.80
2023-03-02T04:51:24.287Z,62.78
2023-03-02T04:54:00.286Z,62.82
2023-03-02T04:56:34.191Z,62.81
2023-03-02T04:59:07.993Z,62.65
2023-03-02T05:01:42.237Z,62.73
2023-03-02T05:04:16.591Z,62.76
2023-03-02T05:06:50.321Z,62.72
2023-03-02T05:09:25.442Z,62.67
2023-03-02T05:12:00.156Z,62.55
2023-03-02T05:14:34.145Z,62.51
2023-03-02T05:17:07.702Z,62.50
2023-03-02T05:19:41.284Z,62.52
2023-03-02T05:22:14.949Z,62.29
2023-03-02T05:24:49.220Z,62.41
2023-03-02T05:27:22.470Z,62.37
2023-03-02T05:29:55.756Z,62.28
2023-03-02T05:32:29.297Z,62.28
2023-03-02T05:35:02.748Z,62.23
2023-03-02T05:37:36.084Z,62.24
2023-03-02T05:40:12.619Z,62.19
2023-03-02T05:42:46.741Z,61.97
2023-03-02T05:45:24.290Z,61.90
2023-03-02T05:47:58.050Z,61.56
2023-03-02T05:50:31.181Z,61.19
2023-03-02T05:53:04.896Z,61.14
2023-03-02T05:55:38.477Z,60.78
2023-03-02T05:58:14.693Z,60.71
2023-03-02T06:00:49.219Z,60.53
2023-03-02T06:03:22.617Z,60.35
2023-03-02T06:05:56.382Z,60.20
2023-03-02T06:08:29.851Z,59.93
2023-03-02T06:11:03.443Z,59.60
2023-03-02T06:13:37.501Z,59.62
2023-03-02T06:16:11.507Z,59.65
2023-03-02T06:18:44.913Z,59.47
2023-03-02T06:21:18.489Z,59.33
2023-03-02T06:23:52.120Z,59.04
2023-03-02T06:26:25.562Z,58.99
2023-03-02T06:28:59.120Z,58.79
2023-03-02T06:31:32.709Z,58.91
2023-03-02T06:34:06.862Z,59.05
2023-03-02T06:36:40.308Z,59.13
2023-03-02T06:39:16.668Z,59.17
2023-03-02T06:41:50.581Z,59.52
2023-03-02T06:44:24.355Z,59.75
2023-03-02T06:46:57.679Z,59.71
2023-03-02T06:49:31.363Z,59.81
2023-03-02T06:52:06.838Z,59.71
2023-03-02T06:54:40.589Z,60.00
2023-03-02T06:57:13.961Z,60.08
2023-03-02T06:59:47.440Z,59.84
2023-03-02T07:02:20.811Z,59.69
2023-03-02T07:04:54.095Z,59.54
2023-03-02T07:07:27.413Z,59.13
2023-03-02T07:10:00.787Z,58.88
2023-03-02T07:12:34.936Z,58.51
2023-03-02T07:15:12.224Z,58.76
2023-03-02T07:17:46.824Z,58.77
2023-03-02T07:20:20.897Z,58.40
2023-03-02T07:22:54.429Z,58.80
2023-03-02T07:25:27.975Z,58.71
2023-03-02T07:28:01.396Z,58.98
2023-03-02T07:30:37.368Z,58.49
2023-03-02T07:33:11.069Z,58.44
2023-03-02T07:35:44.661Z,58.42
2023-03-02T07:38:18.387Z,58.68
2023-03-02T07:40:52.058Z,58.19
2023-03-02T07:43:26.702Z,57.78
2023-03-02T07:46:01.770Z,57.25
2023-03-02T07:48:35.899Z,57.15
2023-03-02T07:51:09.377Z,56.60
2023-03-02T07:53:43.774Z,56.78
2023-03-02T07:56:17.653Z,56.57
2023-03-02T07:58:51.040Z,56.96
2023-03-02T08:01:24.543Z,55.89
2023-03-02T08:03:57.736Z,56.11
2023-03-02T08:06:31.858Z,54.62
2023-03-02T08:09:06.450Z,54.26
2023-03-02T08:11:39.844Z,53.63
2023-03-02T08:14:13.343Z,52.08
2023-03-02T08:16:46.937Z,51.88
2023-03-02T08:19:20.575Z,51.78
2023-03-02T08:21:54.165Z,52.44
2023-03-02T08:24:27.928Z,53.14
2023-03-02T08:27:03.710Z,53.22
2023-03-02T08:29:37.949Z,53.40
2023-03-02T08:32:11.497Z,52.17
2023-03-02T08:34:44.984Z,51.25
2023-03-02T08:37:18.591Z,51.07
2023-03-02T08:39:52.693Z,51.34
2023-03-02T08:42:26.813Z,52.31
2023-03-02T08:45:00.404Z,53.00
2023-03-02T08:47:35.038Z,52.89
2023-03-02T08:50:10.064Z,52.85
2023-03-02T08:52:43.743Z,53.40
2023-03-02T08:55:18.730Z,53.28
2023-03-02T08:57:52.151Z,53.44
2023-03-02T09:00:26.174Z,53.55
2023-03-02T09:02:59.576Z,53.43
2023-03-02T09:05:32.918Z,53.37
2023-03-02T09:08:07.750Z,53.42
2023-03-02T09:10:41.268Z,53.46
2023-03-02T09:13:14.789Z,53.63
2023-03-02T09:15:48.960Z,53.17
2023-03-02T09:18:22.406Z,52.91
2023-03-02T09:20:57.206Z,52.91
2023-03-02T09:23:31.737Z,51.74
2023-03-02T09:26:05.745Z,51.25
2023-03-02T09:28:39.984Z,51.52
2023-03-02T09:31:14.312Z,51.25
2023-03-02T09:33:47.781Z,51.12
2023-03-02T09:36:24.266Z,48.71
2023-03-02T09:38:57.817Z,48.32
2023-03-02T09:41:56.660Z,48.32
2023-03-02T09:44:50.773Z,48.53
2023-03-02T09:47:35.571Z,48.75
2023-03-02T09:50:09.852Z,48.97
2023-03-02T09:52:47.152Z,49.63
2023-03-02T09:55:23.583Z,49.76
2023-03-02T09:57:59.940Z,50.42
2023-03-02T10:00:36.385Z,49.72
2023-03-02T10:03:17.468Z,48.63
2023-03-02T10:05:50.217Z,47.71
2023-03-02T10:08:26.895Z,46.98
2023-03-02T10:11:03.892Z,47.01
2023-03-02T10:13:41.968Z,46.56
2023-03-02T10:16:23.394Z,47.33
2023-03-02T10:19:05.220Z,46.24
2023-03-02T10:21:41.634Z,45.43
2023-03-02T10:24:20.405Z,44.99
2023-03-02T10:26:56.673Z,45.61
2023-03-02T10:29:45.205Z,45.91
2023-03-02T10:32:23.442Z,46.56
2023-03-02T10:34:58.074Z,47.22
2023-03-02T10:37:33.357Z,47.58
2023-03-02T10:40:08.200Z,46.93
2023-03-02T10:42:42.819Z,46.74
2023-03-02T10:45:21.619Z,46.22
2023-03-02T10:48:04.482Z,46.56
2023-03-02T10:50:38.540Z,46.20
2023-03-02T10:53:19.681Z,47.03
2023-03-02T10:55:55.207Z,46.42
2023-03-02T10:58:32.696Z,46.15
2023-03-02T11:01:09.050Z,46.12
2023-03-02T11:03:42.626Z,45.50
2023-03-02T11:06:20.687Z,46.20
2023-03-02T11:09:03.523Z,46.53
2023-03-02T11:11:38.070Z,47.33
2023-03-02T11:14:16.209Z,47.61
2023-03-02T11:16:49.692Z,47.62
2023-03-02T11:19:26.128Z,47.24
2023-03-02T11:22:02.915Z,47.49
2023-03-02T11:24:39.197Z,47.61
2023-03-02T11:27:16.950Z,47.37
2023-03-02T11:29:50.597Z,47.77
2023-03-02T11:32:26.868Z,48.35
2023-03-02T11:35:03.594Z,48.30
2023-03-02T11:37:41.110Z,48.68
2023-03-02T11:40:22.765Z,49.00
2023-03-02T11:42:58.158Z,48.54
2023-03-02T11:45:34.389Z,48.89
2023-03-02T11:48:10.650Z,49.12
2023-03-02T11:50:47.724Z,49.25
2023-03-02T11:53:23.079Z,49.51
2023-03-02T11:55:56.999Z,49.79
2023-03-02T11:58:32.954Z,50.00
2023-03-02T12:01:09.080Z,50.30
2023-03-02T12:03:45.794Z,50.24
2023-03-02T12:06:33.154Z,49.97
2023-03-02T12:09:13.280Z,50.00
2023-03-02T12:11:47.912Z,50.14
2023-03-02T12:14:32.360Z,50.10
2023-03-02T12:17:25.093Z,49.72
2023-03-02T12:20:10.904Z,49.41
2023-03-02T12:22:44.425Z,49.70
2023-03-02T12:25:32.099Z,49.65
2023-03-02T12:28:04.604Z,49.66
2023-03-02T12:30:38.141Z,49.41
2023-03-02T12:33:22.250Z,49.57
2023-03-02T12:36:04.688Z,49.95
2023-03-02T12:38:40.138Z,49.99
2023-03-02T12:41:27.695Z,49.43
2023-03-02T12:44:03.991Z,49.38
2023-03-02T12:46:39.865Z,48.84
2023-03-02T12:52:31.338Z,49.07
2023-03-02T12:55:07.928Z,48.98
2023-03-02T12:57:43.353Z,49.10
2023-03-02T13:00:21.201Z,49.34
2023-03-02T13:02:54.374Z,49.52
2023-03-02T13:05:29.236Z,49.91
2023-03-02T13:08:05.583Z,49.96
2023-03-02T13:10:42.018Z,49.92
2023-03-02T13:13:20.661Z,50.02
2023-03-02T13:15:56.436Z,50.20
2023-03-02T13:18:32.540Z,49.70
2023-03-02T13:21:07.055Z,49.82
2023-03-02T13:23:47.285Z,50.19
2023-03-02T13:26:30.323Z,50.70
2023-03-02T13:29:05.685Z,50.81
2023-03-02T13:31:39.840Z,51.32
2023-03-02T13:34:23.017Z,51.50
2023-03-02T13:36:57.208Z,51.86
2023-03-02T13:39:32.504Z,52.15
2023-03-02T13:42:08.883Z,52.19
2023-03-02T13:44:43.102Z,52.30
2023-03-02T13:47:24.133Z,52.45
2023-03-02T13:49:58.626Z,52.88
2023-03-02T13:52:34.010Z,53.16
2023-03-02T13:55:12.124Z,53.42
2023-03-02T13:57:46.708Z,53.58
2023-03-02T14:00:24.198Z,53.63
2023-03-02T14:02:57.589Z,53.84
2023-03-02T14:05:33.763Z,53.89
2023-03-02T14:08:07.659Z,54.01
2023-03-02T14:10:41.423Z,54.14
2023-03-02T14:13:18.394Z,54.15
2023-03-02T14:15:53.481Z,54.32
2023-03-02T14:18:40.125Z,54.46
2023-03-02T14:21:17.985Z,54.41
2023-03-02T14:23:52.807Z,54.51
2023-03-02T14:26:38.026Z,54.42
2023-03-02T14:29:18.409Z,54.45
2023-03-02T14:31:52.568Z,54.46
2023-03-02T14:34:27.342Z,54.45
2023-03-02T14:37:03.788Z,54.57
2023-03-02T14:39:41.169Z,54.71
2023-03-02T14:42:16.712Z,54.82
2023-03-02T14:44:51.706Z,54.89
2023-03-02T14:47:25.243Z,54.93
2023-03-02T14:49:58.929Z,54.97
2023-03-02T14:52:36.811Z,55.08
2023-03-02T14:55:16.644Z,55.31
2023-03-02T14:57:53.404Z,55.41
2023-03-02T15:00:27.874Z,55.66
2023-03-02T15:03:01.943Z,55.66
2023-03-02T15:05:35.748Z,55.79
2023-03-02T15:08:10.842Z,55.88
2023-03-02T15:10:46.299Z,56.08
2023-03-02T15:13:19.558Z,56.44
2023-03-02T15:15:53.624Z,56.86
2023-03-02T15:18:27.105Z,57.50
2023-03-02T15:21:01.253Z,58.11
2023-03-02T15:23:34.858Z,58.44
2023-03-02T15:26:08.623Z,58.70
2023-03-02T15:28:42.762Z,58.81
2023-03-02T15:31:18.419Z,59.07
2023-03-02T15:33:52.312Z,59.40
2023-03-02T15:36:26.537Z,59.60
2023-03-02T15:39:00.213Z,59.54
2023-03-02T15:41:34.083Z,59.44
2023-03-02T15:44:08.111Z,59.70
2023-03-02T15:46:41.851Z,59.76
2023-03-02T15:49:15.404Z,59.80
2023-03-02T15:51:49.000Z,60.21
2023-03-02T15:54:22.683Z,60.30
2023-03-02T15:56:56.388Z,60.71
2023-03-02T15:59:31.525Z,61.10
2023-03-02T16:02:05.170Z,60.97
2023-03-02T16:04:38.606Z,60.90
2023-03-02T16:07:12.218Z,61.11
2023-03-02T16:09:46.522Z,61.07
2023-03-02T16:12:22.474Z,61.31
2023-03-02T16:14:56.113Z,61.57
2023-03-02T16:17:29.424Z,61.41
2023-03-02T16:20:02.802Z,61.89
2023-03-02T16:22:36.187Z,62.42
2023-03-02T16:25:11.570Z,62.62
2023-03-02T16:27:47.248Z,62.63
2023-03-02T16:30:23.432Z,62.91
2023-03-02T16:33:02.028Z,63.30
2023-03-02T16:35:37.709Z,63.50
2023-03-02T16:38:12.721Z,63.28
2023-03-02T16:40:47.834Z,63.39
2023-03-02T16:43:22.055Z,63.46
2023-03-02T16:45:56.507Z,63.40
2023-03-02T16:48:30.155Z,63.39
2023-03-02T16:51:05.022Z,63.51
2023-03-02T16:53:38.441Z,63.65
2023-03-02T16:56:13.485Z,64.14
2023-03-02T16:58:46.793Z,64.26
2023-03-02T17:01:22.594Z,64.41
2023-03-02T17:03:56.062Z,64.96
2023-03-02T17:06:29.587Z,65.12
2023-03-02T17:09:03.368Z,65.22
2023-03-02T17:11:36.923Z,65.45
2023-03-02T17:14:10.493Z,65.56
2023-03-02T17:16:44.131Z,65.69
2023-03-02T17:19:17.725Z,65.71
2023-03-02T17:21:51.149Z,66.15
2023-03-02T17:24:24.718Z,66.17
2023-03-02T17:26:58.614Z,66.45
2023-03-02T17:29:32.325Z,66.39
2023-03-02T17:32:05.816Z,66.51
2023-03-02T17:34:39.112Z,66.59
2023-03-02T17:37:12.702Z,66.64
2023-03-02T17:39:46.421Z,66.80
2023-03-02T17:42:20.125Z,67.05
2023-03-02T17:44:53.569Z,67.40
2023-03-02T17:47:26.976Z,67.63
2023-03-02T17:50:01.514Z,67.69
2023-03-02T17:52:35.169Z,67.64
2023-03-02T17:55:10.571Z,67.68
2023-03-02T17:57:44.623Z,67.72
2023-03-02T18:00:21.557Z,67.76
2023-03-02T18:02:55.348Z,68.02
2023-03-02T18:05:29.513Z,68.11
2023-03-02T18:08:02.825Z,68.07
2023-03-02T18:10:36.282Z,68.22
2023-03-02T18:13:09.776Z,68.44
2023-03-02T18:15:43.835Z,68.79
2023-03-02T18:18:17.309Z,68.84
2023-03-02T18:20:51.207Z,68.67
2023-03-02T18:23:24.987Z,68.60
2023-03-02T18:25:58.626Z,68.58
2023-03-02T18:28:32.132Z,68.54
2023-03-02T18:31:05.665Z,68.76
2023-03-02T18:33:39.465Z,68.73
2023-03-02T18:36:14.523Z,68.85
2023-03-02T18:38:53.224Z,68.89
2023-03-02T18:41:32.753Z,68.50
2023-03-02T18:44:06.830Z,68.92
2023-03-02T18:46:40.639Z,69.04
2023-03-02T18:49:14.373Z,69.10
2023-03-02T18:51:48.666Z,69.32
2023-03-02T18:54:22.243Z,69.40
2023-03-02T18:56:55.655Z,69.55
2023-03-02T18:59:29.351Z,69.76
2023-03-02T19:02:04.254Z,69.81
2023-03-02T19:04:37.706Z,69.81
2023-03-02T19:07:11.643Z,69.71
2023-03-02T19:09:45.107Z,69.76
2023-03-02T19:12:20.028Z,69.77
2023-03-02T19:14:55.417Z,69.66
2023-03-02T19:17:35.939Z,69.63
2023-03-02T19:20:19.821Z,69.71
2023-03-02T19:22:59.975Z,69.66
2023-03-02T19:25:35.618Z,69.71
2023-03-02T19:28:19.101Z,69.78
2023-03-02T19:30:55.490Z,69.69
2023-03-02T19:33:29.203Z,69.66
2023-03-02T19:36:02.333Z,69.65
2023-03-02T19:38:37.856Z,69.72
2023-03-02T19:41:12.509Z,69.85
2023-03-02T19:43:46.461Z,69.79
2023-03-02T19:46:21.084Z,69.76
2023-03-02T19:48:54.830Z,69.68
2023-03-02T19:51:28.725Z,69.65
2023-03-02T19:54:04.446Z,69.68
2023-03-02T19:56:39.843Z,69.61
2023-03-02T19:59:13.573Z,69.52
2023-03-02T20:01:48.906Z,69.48
2023-03-02T20:04:22.265Z,69.43
2023-03-02T20:06:55.697Z,69.40
2023-03-02T20:09:29.288Z,69.45
2023-03-02T20:12:05.043Z,69.37
2023-03-02T20:14:40.458Z,69.28
2023-03-02T20:17:14.135Z,69.33
2023-03-02T20:19:47.831Z,69.25
2023-03-02T20:22:21.331Z,69.35
2023-03-02T20:24:54.821Z,69.58
2023-03-02T20:27:28.353Z,69.75
2023-03-02T20:30:01.685Z,69.91
2023-03-02T20:32:35.223Z,70.12
2023-03-02T20:35:11.283Z,70.24
2023-03-02T20:37:44.750Z,70.26
2023-03-02T20:40:19.531Z,70.23
2023-03-02T20:42:53.735Z,70.29
2023-03-02T20:45:27.272Z,70.39
2023-03-02T20:48:00.872Z,70.39
2023-03-02T20:50:36.346Z,70.40
2023-03-02T20:53:10.795Z,70.40
2023-03-02T20:55:44.962Z,70.47
2023-03-02T20:58:18.932Z,70.55
2023-03-02T21:00:53.999Z,70.66
2023-03-02T21:03:27.133Z,70.70
2023-03-02T21:06:00.918Z,70.76
2023-03-02T21:08:36.405Z,70.69
2023-03-02T21:11:12.703Z,70.81
2023-03-02T21:13:47.794Z,70.84
2023-03-02T21:16:24.080Z,71.04
2023-03-02T21:19:00.539Z,71.15
2023-03-02T21:21:41.352Z,71.27
2023-03-02T21:24:10.805Z,71.37
2023-03-02T21:26:44.995Z,71.53
2023-03-02T21:29:21.638Z,71.57
2023-03-02T21:31:55.761Z,71.70
2023-03-02T21:34:32.103Z,71.81
2023-03-02T21:37:08.670Z,71.89
2023-03-02T21:39:43.587Z,71.99
2023-03-02T21:42:19.646Z,72.09
2023-03-02T21:44:52.949Z,72.04
2023-03-02T21:47:26.365Z,72.21
2023-03-02T21:49:59.918Z,72.43
2023-03-02T21:52:35.130Z,72.57
2023-03-02T21:55:10.375Z,72.63
2023-03-02T21:57:44.400Z,72.78
2023-03-02T22:00:22.972Z,73.00
2023-03-02T22:02:57.036Z,73.22
2023-03-02T22:05:30.578Z,73.27
2023-03-02T22:08:03.913Z,73.40
2023-03-02T22:10:41.614Z,73.49
2023-03-02T22:13:18.532Z,73.41
2023-03-02T22:15:53.776Z,73.03
2023-03-02T22:18:27.985Z,73.05
2023-03-02T22:21:02.790Z,73.03
2023-03-02T22:23:36.212Z,73.00
2023-03-02T22:26:14.499Z,72.91
2023-03-02T22:28:47.885Z,72.82
2023-03-02T22:31:23.656Z,72.73
2023-03-02T22:33:57.178Z,72.67
2023-03-02T22:36:31.953Z,72.55
2023-03-02T22:39:09.960Z,72.48
2023-03-02T22:41:43.369Z,72.45
2023-03-02T22:44:17.008Z,72.51
2023-03-02T22:46:50.711Z,72.58
2023-03-02T22:49:24.042Z,72.49
2023-03-02T22:51:59.231Z,72.38
2023-03-02T22:54:35.422Z,72.28
2023-03-02T22:57:26.883Z,72.20
2023-03-02T23:00:07.619Z,72.18
2023-03-02T23:02:44.223Z,72.31
2023-03-02T23:05:28.576Z,72.27
2023-03-02T23:08:14.067Z,72.28
2023-03-02T23:10:48.542Z,72.34
2023-03-02T23:13:26.928Z,72.41
2023-03-02T23:15:59.510Z,72.45
2023-03-02T23:18:34.304Z,72.38
2023-03-02T23:21:14.412Z,72.37
2023-03-02T23:23:47.910Z,72.30
2023-03-02T23:26:21.956Z,72.25
2023-03-02T23:28:55.864Z,72.29
2023-03-02T23:31:30.364Z,72.33
2023-03-02T23:34:05.526Z,72.41
2023-03-02T23:36:39.856Z,72.36
2023-03-02T23:39:14.589Z,72.27
2023-03-02T23:41:47.906Z,72.10
2023-03-02T23:44:22.245Z,72.09
2023-03-02T23:46:56.235Z,72.13
2023-03-02T23:49:29.853Z,72.17
2023-03-02T23:52:03.685Z,72.24
2023-03-02T23:54:36.247Z,72.32
2023-03-02T23:57:10.021Z,72.40
2023-03-02T23:59:46.310Z,72.50
